Norsul Tubarao — 3FJV6 — position and weather

sailwx.info

Track history (hours):
 
Tides and Currents Weather Stations Pressure Air Temp Water Temp Dewpoint Dewpoint Depression Visibility Wind Speed Wind Dir Waves Ship Positions

Norsul Tubarao

Last reported at 2017-Jan-23 19:27 UTC. Time now 2017-Feb-20 20:31 UTC.
Position N 01°55' E 102°20'.
Warning: this ship's position is 28 days out of date.

Length 175 m; draft 7.3 m.

Type: Cargo ship. MMSI: 373182000.

Date/timePositionNaut miles runAvg speedWind from/ knotsBaromVisibWave heightAir tempDewpointWater temp
2017-Jan-23 19:27N 01°55' E 102°20'1010.1
2017-Jan-23 18:28N 01°51' E 102°29'1110.7
2017-Jan-23 17:25N 01°45' E 102°39'7010.3
2017-Jan-23 10:34N 01°11' E 103°40'10 9.5
2017-Jan-23 09:32N 01°11' E 103°50'8 8.3
2017-Jan-23 08:33N 01°16' E 103°56'2 1.4
2017-Jan-23 07:27N 01°16' E 103°55'0 0.1
2017-Jan-23 06:33N 01°16' E 103°55'0 0.1
2017-Jan-23 05:33N 01°16' E 103°55'0 0.0
2017-Jan-23 04:33N 01°16' E 103°55'0 0.1
2017-Jan-23 03:33N 01°16' E 103°55'0 0.3
2017-Jan-23 02:27N 01°16' E 103°55'0 0.0
2017-Jan-23 01:33N 01°16' E 103°55'0 0.2
2017-Jan-23 00:33N 01°16' E 103°55'0 0.1
2017-Jan-22 23:33N 01°16' E 103°55'0 0.1
2017-Jan-22 22:33N 01°16' E 103°55'0 0.0
2017-Jan-22 21:27N 01°16' E 103°55'0 0.0
2017-Jan-22 20:33N 01°16' E 103°55'0 0.0
2017-Jan-22 19:27N 01°16' E 103°55'0 0.1
2017-Jan-22 18:24N 01°16' E 103°55'0 0.1
2017-Jan-22 17:33N 01°16' E 103°55'0 0.0
2017-Jan-22 16:33N 01°16' E 103°55'0 0.1
2017-Jan-22 15:27N 01°16' E 103°55'0 0.0
2017-Jan-22 14:33N 01°16' E 103°55'0 0.0
2017-Jan-22 13:21N 01°16' E 103°55'0 0.0
2017-Jan-22 12:27N 01°16' E 103°55'0 0.1
2017-Jan-22 11:33N 01°16' E 103°55'0 0.0
2017-Jan-22 10:33N 01°16' E 103°55'0 0.0
2017-Jan-22 09:33N 01°16' E 103°55'0 0.1
2017-Jan-22 08:21N 01°16' E 103°55'0 0.0
2017-Jan-22 07:21N 01°16' E 103°55'0 0.0
2017-Jan-22 06:27N 01°16' E 103°55'0 0.0
2017-Jan-22 05:06N 01°16' E 103°55'0 0.0
2017-Jan-22 04:33N 01°16' E 103°55'0 0.1
2017-Jan-22 03:33N 01°16' E 103°55'2 1.9
2017-Jan-22 02:33N 01°14' E 103°55'5 5.2
2017-Jan-22 01:32N 01°16' E 103°60'  
2017-Jan-14 15:32N 38°17' E 121°55'1515.0
2017-Jan-14 14:33N 38°23' E 121°37'1514.5
2017-Jan-14 13:33N 38°24' E 121°19'1414.5
2017-Jan-14 12:33N 38°30' E 121°02'1414.5
2017-Jan-14 11:33N 38°39' E 120°47'  
Track history (hours):
 
Tides and Currents Weather Stations Pressure Air Temp Water Temp Dewpoint Dewpoint Depression Visibility Wind Speed Wind Dir Waves Ship Positions

Norsul Tubarao

Last reported at 2017-Jan-23 19:27 UTC. Time now 2017-Feb-20 20:31 UTC.
Position N 01°55' E 102°20'.
Warning: this ship's position is 28 days out of date.

Length 175 m; draft 7.3 m.

Type: Cargo ship. MMSI: 373182000.

Date/timePositionNaut miles runAvg speedWind from/ knotsBaromVisibWave heightAir tempDewpointWater temp
2017-Jan-23 19:27N 01°55' E 102°20'1010.1
2017-Jan-23 18:28N 01°51' E 102°29'1110.7
2017-Jan-23 17:25N 01°45' E 102°39'7010.3
2017-Jan-23 10:34N 01°11' E 103°40'10 9.5
2017-Jan-23 09:32N 01°11' E 103°50'8 8.3
2017-Jan-23 08:33N 01°16' E 103°56'2 1.4
2017-Jan-23 07:27N 01°16' E 103°55'0 0.1
2017-Jan-23 06:33N 01°16' E 103°55'0 0.1
2017-Jan-23 05:33N 01°16' E 103°55'0 0.0
2017-Jan-23 04:33N 01°16' E 103°55'0 0.1
2017-Jan-23 03:33N 01°16' E 103°55'0 0.3
2017-Jan-23 02:27N 01°16' E 103°55'0 0.0
2017-Jan-23 01:33N 01°16' E 103°55'0 0.2
2017-Jan-23 00:33N 01°16' E 103°55'0 0.1
2017-Jan-22 23:33N 01°16' E 103°55'0 0.1
2017-Jan-22 22:33N 01°16' E 103°55'0 0.0
2017-Jan-22 21:27N 01°16' E 103°55'0 0.0
2017-Jan-22 20:33N 01°16' E 103°55'0 0.0
2017-Jan-22 19:27N 01°16' E 103°55'0 0.1
2017-Jan-22 18:24N 01°16' E 103°55'0 0.1
2017-Jan-22 17:33N 01°16' E 103°55'0 0.0
2017-Jan-22 16:33N 01°16' E 103°55'0 0.1
2017-Jan-22 15:27N 01°16' E 103°55'0 0.0
2017-Jan-22 14:33N 01°16' E 103°55'0 0.0
2017-Jan-22 13:21N 01°16' E 103°55'0 0.0
2017-Jan-22 12:27N 01°16' E 103°55'0 0.1
2017-Jan-22 11:33N 01°16' E 103°55'0 0.0
2017-Jan-22 10:33N 01°16' E 103°55'0 0.0
2017-Jan-22 09:33N 01°16' E 103°55'0 0.1
2017-Jan-22 08:21N 01°16' E 103°55'0 0.0
2017-Jan-22 07:21N 01°16' E 103°55'0 0.0
2017-Jan-22 06:27N 01°16' E 103°55'0 0.0
2017-Jan-22 05:06N 01°16' E 103°55'0 0.0
2017-Jan-22 04:33N 01°16' E 103°55'0 0.1
2017-Jan-22 03:33N 01°16' E 103°55'2 1.9
2017-Jan-22 02:33N 01°14' E 103°55'5 5.2
2017-Jan-22 01:32N 01°16' E 103°60'  
2017-Jan-14 15:32N 38°17' E 121°55'1515.0
2017-Jan-14 14:33N 38°23' E 121°37'1514.5
2017-Jan-14 13:33N 38°24' E 121°19'1414.5
2017-Jan-14 12:33N 38°30' E 121°02'1414.5
2017-Jan-14 11:33N 38°39' E 120°47'  

Dump ship's entire track history